ROKT51 KLAL-
Flight info
| Callsign | ROKT51 |
|---|---|
| Flight time | N/A |
| Altitude | VFR |
| Route | EAST |
| Aircraft | HAWK/M-VGD/N |
Departure
| Time | 2026-04-26 23:23 |
|---|---|
| Airport | Lakeland Linder International Airport (KLAL) |
Arrival
| Time | N/A |
|---|---|
| Airport | - |
| Time | Latitude | Longitude | Altitude | Speed | Heading |
|---|---|---|---|---|---|
| 2026-04-26 23:20 | 27.98765 | -82.01553 | 148 ft | 0 kts | 348° |
| 2026-04-26 23:21 | 27.98766 | -82.01553 | 148 ft | 1 kts | 348° |
| 2026-04-26 23:22 | 27.98828 | -82.01526 | 146 ft | 14 kts | 45° |
| 2026-04-26 23:22 | 27.98882 | -82.01436 | 145 ft | 0 kts | 40° |
| 2026-04-26 23:22 | 27.98921 | -82.01456 | 144 ft | 20 kts | 270° |
| 2026-04-26 23:22 | 27.98921 | -82.01490 | 144 ft | 20 kts | 272° |
| 2026-04-26 23:23 | 27.98928 | -82.01969 | 144 ft | 98 kts | 275° |
| 2026-04-26 23:23 | 27.98914 | -82.03038 | 303 ft | 173 kts | 267° |
| 2026-04-26 23:23 | 27.98744 | -82.04585 | 1149 ft | 216 kts | 265° |
| 2026-04-26 23:23 | 27.98440 | -82.06334 | 2413 ft | 250 kts | 254° |
| 2026-04-26 23:24 | 27.97569 | -82.08370 | 2626 ft | 320 kts | 243° |
| 2026-04-26 23:24 | 27.96396 | -82.10711 | 3178 ft | 361 kts | 241° |
| 2026-04-26 23:24 | 27.95034 | -82.13366 | 2550 ft | 423 kts | 241° |
| 2026-04-26 23:24 | 27.93496 | -82.16420 | 1200 ft | 480 kts | 245° |
| 2026-04-26 23:25 | 27.92922 | -82.20073 | 1464 ft | 475 kts | 268° |
| 2026-04-26 23:25 | 27.92876 | -82.23854 | 1019 ft | 492 kts | 270° |
| 2026-04-26 23:25 | 27.92612 | -82.27735 | 1290 ft | 485 kts | 255° |
| 2026-04-26 23:25 | 27.91526 | -82.27608 | 2440 ft | 389 kts | 62° |
| 2026-04-26 23:26 | 27.93402 | -82.27292 | 1219 ft | 398 kts | 267° |
| 2026-04-26 23:26 | 27.92252 | -82.30327 | 1078 ft | 435 kts | 243° |
| 2026-04-26 23:26 | 27.90745 | -82.33390 | 1229 ft | 455 kts | 243° |
| 2026-04-26 23:26 | 27.89538 | -82.36791 | 1005 ft | 475 kts | 256° |
| 2026-04-26 23:27 | 27.89105 | -82.40406 | 2084 ft | 453 kts | 264° |
| 2026-04-26 23:27 | 27.88807 | -82.43837 | 3623 ft | 444 kts | 265° |
| 2026-04-26 23:27 | 27.88452 | -82.47305 | 4763 ft | 437 kts | 264° |
| 2026-04-26 23:27 | 27.88198 | -82.49537 | 5677 ft | 435 kts | 264° |
| 2026-04-26 23:28 | 27.87721 | -82.54379 | 3806 ft | 500 kts | 267° |
| 2026-04-26 23:28 | 27.87735 | -82.58451 | 2680 ft | 520 kts | 273° |
| 2026-04-26 23:28 | 27.87984 | -82.62581 | 1132 ft | 536 kts | 279° |
| 2026-04-26 23:28 | 27.88740 | -82.66638 | 637 ft | 526 kts | 286° |
| 2026-04-26 23:29 | 27.90144 | -82.70155 | 2201 ft | 430 kts | 249° |
| 2026-04-26 23:29 | 27.88844 | -82.69245 | 150 ft | 427 kts | 70° |
| 2026-04-26 23:29 | 27.90458 | -82.69044 | 1454 ft | 296 kts | 302° |
| 2026-04-26 23:29 | 27.91819 | -82.70728 | 502 ft | 272 kts | 354° |
| 2026-04-26 23:30 | 27.91856 | -82.69600 | 472 ft | 246 kts | 163° |
| 2026-04-26 23:30 | 27.89886 | -82.69495 | 468 ft | 290 kts | 179° |
| 2026-04-26 23:30 | 27.88230 | -82.69132 | 811 ft | 201 kts | 126° |
| 2026-04-26 23:30 | 27.88763 | -82.68220 | 426 ft | 198 kts | 347° |
| 2026-04-26 23:31 | 27.90291 | -82.68872 | 314 ft | 276 kts | 335° |
| 2026-04-26 23:31 | 27.91157 | -82.70215 | 1037 ft | 261 kts | 200° |
| 2026-04-26 23:31 | 27.89471 | -82.70042 | 1422 ft | 221 kts | 142° |
| 2026-04-26 23:31 | 27.89928 | -82.68986 | 350 ft | 243 kts | 6° |
| 2026-04-26 23:32 | 27.91469 | -82.69900 | 147 ft | 294 kts | 276° |
| 2026-04-26 23:32 | 27.90092 | -82.70078 | 1153 ft | 302 kts | 91° |
| 2026-04-26 23:32 | 27.91570 | -82.69849 | 288 ft | 280 kts | 268° |
| 2026-04-26 23:32 | 27.89912 | -82.70074 | 1654 ft | 290 kts | 142° |
| 2026-04-26 23:33 | 27.89827 | -82.68178 | 1971 ft | 242 kts | 7° |
| 2026-04-26 23:33 | 27.91355 | -82.69552 | 36 ft | 340 kts | 312° |
| 2026-04-26 23:33 | 27.90537 | -82.70797 | 1189 ft | 331 kts | 177° |
| 2026-04-26 23:33 | 27.89004 | -82.69174 | 2331 ft | 351 kts | 98° |
| 2026-04-26 23:34 | 27.90463 | -82.68470 | 363 ft | 398 kts | 315° |
| 2026-04-26 23:34 | 27.91567 | -82.70927 | 1591 ft | 364 kts | 216° |
| 2026-04-26 23:34 | 27.89056 | -82.70437 | 2205 ft | 391 kts | 139° |
| 2026-04-26 23:34 | 27.89658 | -82.68422 | 2044 ft | 316 kts | 349° |
| 2026-04-26 23:35 | 27.91682 | -82.70308 | 972 ft | 384 kts | 261° |
| 2026-04-26 23:35 | 27.90182 | -82.70663 | 1472 ft | 403 kts | 164° |
| 2026-04-26 23:35 | 27.89020 | -82.68520 | 2297 ft | 391 kts | 38° |
| 2026-04-26 23:35 | 27.91668 | -82.70411 | 984 ft | 376 kts | 253° |
| 2026-04-26 23:36 | 27.89343 | -82.70081 | 2184 ft | 404 kts | 144° |
| 2026-04-26 23:36 | 27.89706 | -82.68119 | 685 ft | 397 kts | 327° |
| 2026-04-26 23:36 | 27.91585 | -82.70505 | 573 ft | 410 kts | 256° |
| 2026-04-26 23:36 | 27.89184 | -82.70909 | 1901 ft | 321 kts | 164° |
| 2026-04-26 23:37 | 27.88049 | -82.70286 | 1502 ft | 242 kts | 149° |
| 2026-04-26 23:37 | 27.87864 | -82.69010 | 768 ft | 190 kts | 16° |
| 2026-04-26 23:37 | 27.89238 | -82.68626 | 241 ft | 219 kts | 7° |
| 2026-04-26 23:37 | 27.90652 | -82.68779 | 23 ft | 166 kts | 349° |